BAW35 EGLL-VOMM
Flight info
| Callsign | BAW35 |
|---|---|
| Flight time | N/A |
| Altitude | 35000 |
| Route | DET1J DET L6 DVR UL9 KONAN UL607 KOK DCT SPI DCT GUBAX DCT BOREP DCT ENITA DCT PEPIK DCT BALAP DCT NARKA DCT IPTOL DCT UDROS UM859 KARDE UL851 OLUPO/N0482F370 UL851 TBN UM11 REBLO P130 MAMED B449 RANAH L750 BIROS/N0497F390 L750 ZB G202 RK P628 VIKIT Z9 UUD L518 HIA V4 BOPRI BOPRI2F |
| Aircraft | B744/H-SDE3FGHIJ3J5J6M1M2P2RWXYZ/LB1D1 |
Departure
| Time | 2026-04-30 19:01 |
|---|---|
| Airport | London Heathrow Airport (EGLL) |
Arrival
| Time | N/A |
|---|---|
| Airport | Chennai International Airport (VOMM) |
| Time | Latitude | Longitude | Altitude | Speed | Heading |
|---|---|---|---|---|---|
| 2026-04-30 18:15 | 51.46917 | -0.47747 | 94 ft | 0 kts | 89° |
| 2026-04-30 18:41 | 51.46917 | -0.47783 | 94 ft | 4 kts | 89° |
| 2026-04-30 18:41 | 51.46922 | -0.47833 | 95 ft | 5 kts | 116° |
| 2026-04-30 18:42 | 51.46941 | -0.47871 | 93 ft | 4 kts | 146° |
| 2026-04-30 18:42 | 51.47000 | -0.47883 | 93 ft | 4 kts | 198° |
| 2026-04-30 18:42 | 51.47031 | -0.47871 | 92 ft | 4 kts | 179° |
| 2026-04-30 18:45 | 51.47026 | -0.47871 | 92 ft | 2 kts | 178° |
| 2026-04-30 18:45 | 51.47001 | -0.47870 | 93 ft | 4 kts | 179° |
| 2026-04-30 18:45 | 51.46958 | -0.47869 | 92 ft | 7 kts | 179° |
| 2026-04-30 18:46 | 51.46899 | -0.47869 | 95 ft | 9 kts | 180° |
| 2026-04-30 18:46 | 51.46829 | -0.47869 | 96 ft | 8 kts | 180° |
| 2026-04-30 18:46 | 51.46776 | -0.47870 | 96 ft | 5 kts | 180° |
| 2026-04-30 18:46 | 51.46766 | -0.47870 | 96 ft | 1 kts | 180° |
| 2026-04-30 18:47 | 51.46747 | -0.47869 | 96 ft | 4 kts | 178° |
| 2026-04-30 18:47 | 51.46720 | -0.47868 | 96 ft | 3 kts | 178° |
| 2026-04-30 18:47 | 51.46699 | -0.47867 | 96 ft | 4 kts | 179° |
| 2026-04-30 18:47 | 51.46667 | -0.47894 | 97 ft | 7 kts | 240° |
| 2026-04-30 18:48 | 51.46655 | -0.47957 | 98 ft | 0 kts | 265° |
| 2026-04-30 18:48 | 51.46655 | -0.47956 | 98 ft | 0 kts | 265° |
| 2026-04-30 18:48 | 51.46654 | -0.47970 | 98 ft | 2 kts | 267° |
| 2026-04-30 18:48 | 51.46653 | -0.47995 | 98 ft | 1 kts | 267° |
| 2026-04-30 18:49 | 51.46653 | -0.48025 | 98 ft | 4 kts | 268° |
| 2026-04-30 18:49 | 51.46652 | -0.48068 | 98 ft | 0 kts | 269° |
| 2026-04-30 18:50 | 51.46652 | -0.48082 | 98 ft | 4 kts | 269° |
| 2026-04-30 18:51 | 51.46652 | -0.48153 | 98 ft | 9 kts | 269° |
| 2026-04-30 18:51 | 51.46651 | -0.48261 | 98 ft | 11 kts | 269° |
| 2026-04-30 18:51 | 51.46650 | -0.48353 | 98 ft | 9 kts | 270° |
| 2026-04-30 18:51 | 51.46650 | -0.48469 | 98 ft | 11 kts | 270° |
| 2026-04-30 18:52 | 51.46650 | -0.48584 | 98 ft | 8 kts | 270° |
| 2026-04-30 18:52 | 51.46651 | -0.48684 | 98 ft | 7 kts | 270° |
| 2026-04-30 18:52 | 51.46639 | -0.48740 | 96 ft | 6 kts | 213° |
| 2026-04-30 18:52 | 51.46621 | -0.48755 | 97 ft | 0 kts | 201° |
| 2026-04-30 18:58 | 51.46587 | -0.48774 | 97 ft | 5 kts | 197° |
| 2026-04-30 18:58 | 51.46558 | -0.48783 | 97 ft | 7 kts | 177° |
| 2026-04-30 18:58 | 51.46505 | -0.48767 | 98 ft | 7 kts | 146° |
| 2026-04-30 18:59 | 51.46478 | -0.48680 | 98 ft | 0 kts | 90° |
| 2026-04-30 19:00 | 51.46478 | -0.47146 | 97 ft | 109 kts | 90° |
| 2026-04-30 19:00 | 51.46482 | -0.46252 | 99 ft | 126 kts | 90° |
| 2026-04-30 19:00 | 51.46486 | -0.43118 | 268 ft | 142 kts | 90° |
| 2026-04-30 19:01 | 51.45783 | -0.40116 | 1142 ft | 147 kts | 130° |
| 2026-04-30 19:01 | 51.45073 | -0.38764 | 1434 ft | 162 kts | 117° |
| 2026-04-30 19:02 | 51.44183 | -0.35241 | 2127 ft | 183 kts | 106° |
| 2026-04-30 19:02 | 51.43362 | -0.30997 | 2378 ft | 213 kts | 105° |
| 2026-04-30 19:03 | 51.42514 | -0.26016 | 3083 ft | 234 kts | 102° |
| 2026-04-30 19:03 | 51.41737 | -0.20438 | 4183 ft | 275 kts | 102° |
| 2026-04-30 19:04 | 51.40936 | -0.14622 | 5727 ft | 270 kts | 102° |
| 2026-04-30 19:04 | 51.40265 | -0.09655 | 6898 ft | 266 kts | 102° |
| 2026-04-30 19:05 | 51.39344 | -0.02560 | 8482 ft | 276 kts | 102° |
| 2026-04-30 19:05 | 51.38533 | 0.03772 | 9734 ft | 297 kts | 103° |
| 2026-04-30 19:06 | 51.37693 | 0.10493 | 10833 ft | 312 kts | 104° |
| 2026-04-30 19:06 | 51.37204 | 0.13942 | 11393 ft | 327 kts | 107° |
| 2026-04-30 19:06 | 51.35987 | 0.21235 | 11985 ft | 370 kts | 107° |
| 2026-04-30 19:07 | 51.34749 | 0.29256 | 12539 ft | 395 kts | 105° |
| 2026-04-30 19:07 | 51.34156 | 0.33287 | 12910 ft | 291 kts | 105° |
| 2026-04-30 19:08 | 51.33243 | 0.39742 | 13583 ft | 393 kts | 105° |
| 2026-04-30 19:08 | 51.32049 | 0.48152 | 14437 ft | 394 kts | 105° |
| 2026-04-30 19:08 | 51.31441 | 0.52399 | 14862 ft | 392 kts | 105° |
| 2026-04-30 19:09 | 51.30189 | 0.60942 | 15721 ft | 395 kts | 106° |
| 2026-04-30 19:09 | 51.29476 | 0.65203 | 16156 ft | 474 kts | 107° |
| 2026-04-30 19:09 | 51.28705 | 0.69417 | 16563 ft | 450 kts | 108° |
| 2026-04-30 19:10 | 51.27094 | 0.78040 | 17373 ft | 408 kts | 108° |
| 2026-04-30 19:10 | 51.25464 | 0.86710 | 18157 ft | 406 kts | 108° |
| 2026-04-30 19:11 | 51.24645 | 0.91108 | 18543 ft | 416 kts | 108° |
| 2026-04-30 19:11 | 51.23009 | 0.99922 | 19307 ft | 427 kts | 108° |
| 2026-04-30 19:11 | 51.22184 | 1.04370 | 19650 ft | 420 kts | 108° |
| 2026-04-30 19:12 | 51.21363 | 1.08795 | 19997 ft | 403 kts | 108° |
| 2026-04-30 19:12 | 51.20526 | 1.13287 | 20343 ft | 427 kts | 108° |
| 2026-04-30 19:12 | 51.19682 | 1.17786 | 20688 ft | 432 kts | 108° |
| 2026-04-30 19:13 | 51.17976 | 1.26892 | 21361 ft | 421 kts | 108° |
| 2026-04-30 19:13 | 51.16380 | 1.36145 | 21993 ft | 438 kts | 100° |
| 2026-04-30 19:13 | 51.16031 | 1.40939 | 22345 ft | 425 kts | 98° |
| 2026-04-30 19:14 | 51.15747 | 1.45808 | 22653 ft | 439 kts | 97° |
| 2026-04-30 19:14 | 51.15503 | 1.50704 | 22968 ft | 460 kts | 96° |
| 2026-04-30 19:14 | 51.15277 | 1.55592 | 23286 ft | 457 kts | 96° |
| 2026-04-30 19:14 | 51.15055 | 1.60547 | 23576 ft | 440 kts | 96° |
| 2026-04-30 19:15 | 51.14817 | 1.65687 | 23902 ft | 451 kts | 97° |
| 2026-04-30 19:15 | 51.14346 | 1.75404 | 24499 ft | 445 kts | 97° |
| 2026-04-30 19:15 | 51.14087 | 1.80420 | 24801 ft | 433 kts | 98° |
| 2026-04-30 19:16 | 51.13666 | 1.85406 | 25103 ft | 453 kts | 101° |
| 2026-04-30 19:16 | 51.13118 | 1.90420 | 25408 ft | 449 kts | 103° |
| 2026-04-30 19:16 | 51.11887 | 2.00500 | 26027 ft | 474 kts | 103° |
| 2026-04-30 19:17 | 51.11283 | 2.05457 | 26317 ft | 462 kts | 103° |
| 2026-04-30 19:17 | 51.10088 | 2.15591 | 26953 ft | 484 kts | 102° |
| 2026-04-30 19:17 | 51.09498 | 2.20701 | 27273 ft | 459 kts | 102° |
| 2026-04-30 19:18 | 51.08519 | 2.29215 | 27826 ft | 489 kts | 102° |
| 2026-04-30 19:18 | 51.07721 | 2.36137 | 28296 ft | 502 kts | 102° |
| 2026-04-30 19:18 | 51.07120 | 2.41300 | 28649 ft | 498 kts | 102° |
| 2026-04-30 19:19 | 51.06516 | 2.46493 | 29015 ft | 489 kts | 102° |
| 2026-04-30 19:19 | 51.05903 | 2.51758 | 29389 ft | 529 kts | 102° |
| 2026-04-30 19:19 | 51.04664 | 2.62281 | 30188 ft | 484 kts | 102° |
| 2026-04-30 19:20 | 51.04041 | 2.67530 | 30624 ft | 483 kts | 102° |
| 2026-04-30 19:20 | 51.03417 | 2.72781 | 31081 ft | 491 kts | 102° |
| 2026-04-30 19:20 | 51.02162 | 2.83189 | 31998 ft | 501 kts | 102° |
| 2026-04-30 19:21 | 51.01534 | 2.88441 | 32445 ft | 494 kts | 102° |
| 2026-04-30 19:21 | 51.00276 | 2.98754 | 33375 ft | 480 kts | 102° |
| 2026-04-30 19:22 | 50.99008 | 3.09127 | 34261 ft | 490 kts | 102° |
| 2026-04-30 19:22 | 50.97113 | 3.24548 | 35205 ft | 495 kts | 102° |
| 2026-04-30 19:23 | 50.95227 | 3.39688 | 35217 ft | 498 kts | 102° |
| 2026-04-30 19:24 | 50.93936 | 3.49946 | 35230 ft | 458 kts | 102° |
| 2026-04-30 19:24 | 50.93291 | 3.55035 | 35230 ft | 477 kts | 102° |
| 2026-04-30 19:25 | 50.90042 | 3.80411 | 35236 ft | 492 kts | 102° |
| 2026-04-30 19:26 | 50.88726 | 3.90560 | 35240 ft | 475 kts | 102° |
| 2026-04-30 19:26 | 50.87409 | 4.00636 | 35247 ft | 482 kts | 102° |
| 2026-04-30 19:27 | 50.85401 | 4.15842 | 35251 ft | 471 kts | 102° |
| 2026-04-30 19:28 | 50.83375 | 4.31080 | 35256 ft | 470 kts | 102° |
| 2026-04-30 19:29 | 50.80640 | 4.51356 | 35260 ft | 474 kts | 102° |
| 2026-04-30 19:30 | 50.77871 | 4.71599 | 35263 ft | 469 kts | 102° |
| 2026-04-30 19:30 | 50.76479 | 4.81707 | 35264 ft | 457 kts | 102° |
| 2026-04-30 19:31 | 50.75066 | 4.91829 | 35267 ft | 471 kts | 102° |
| 2026-04-30 19:31 | 50.72939 | 5.06938 | 35274 ft | 465 kts | 102° |
| 2026-04-30 19:32 | 50.72231 | 5.11995 | 35273 ft | 492 kts | 102° |
| 2026-04-30 19:32 | 50.71511 | 5.17077 | 35280 ft | 478 kts | 102° |
| 2026-04-30 19:32 | 50.70066 | 5.27216 | 35290 ft | 469 kts | 102° |
| 2026-04-30 19:33 | 50.68621 | 5.37279 | 35287 ft | 469 kts | 102° |
| 2026-04-30 19:33 | 50.67170 | 5.47330 | 35289 ft | 489 kts | 102° |
| 2026-04-30 19:34 | 50.66434 | 5.52371 | 35285 ft | 471 kts | 102° |
| 2026-04-30 19:34 | 50.65692 | 5.57462 | 35286 ft | 483 kts | 102° |
| 2026-04-30 19:35 | 50.63475 | 5.72627 | 35285 ft | 480 kts | 102° |
| 2026-04-30 19:35 | 50.62733 | 5.77661 | 35282 ft | 466 kts | 102° |
| 2026-04-30 19:35 | 50.61987 | 5.82701 | 35290 ft | 498 kts | 102° |
| 2026-04-30 19:35 | 50.61239 | 5.87742 | 35290 ft | 458 kts | 102° |
| 2026-04-30 19:36 | 50.60486 | 5.92793 | 35289 ft | 459 kts | 102° |
| 2026-04-30 19:36 | 50.59735 | 5.97823 | 35286 ft | 470 kts | 102° |
| 2026-04-30 19:36 | 50.58215 | 6.07912 | 35287 ft | 491 kts | 102° |
| 2026-04-30 19:37 | 50.57455 | 6.12950 | 35286 ft | 566 kts | 102° |
| 2026-04-30 19:37 | 50.56693 | 6.18015 | 35283 ft | 468 kts | 102° |
| 2026-04-30 19:37 | 50.55931 | 6.23036 | 35287 ft | 480 kts | 102° |
| 2026-04-30 19:37 | 50.55166 | 6.28062 | 35298 ft | 476 kts | 102° |
| 2026-04-30 19:38 | 50.53878 | 6.36480 | 35292 ft | 472 kts | 102° |
| 2026-04-30 19:38 | 50.53117 | 6.41436 | 35294 ft | 493 kts | 102° |
| 2026-04-30 19:38 | 50.52344 | 6.46455 | 35306 ft | 471 kts | 102° |
| 2026-04-30 19:39 | 50.50790 | 6.56479 | 35298 ft | 472 kts | 102° |
| 2026-04-30 19:39 | 50.49229 | 6.66519 | 35304 ft | 461 kts | 102° |
| 2026-04-30 19:40 | 50.47664 | 6.76504 | 35316 ft | 476 kts | 102° |
| 2026-04-30 19:40 | 50.46091 | 6.86482 | 35327 ft | 473 kts | 102° |
| 2026-04-30 19:41 | 50.44508 | 6.96450 | 35323 ft | 489 kts | 102° |
| 2026-04-30 19:41 | 50.43715 | 7.01440 | 35323 ft | 478 kts | 102° |
| 2026-04-30 19:41 | 50.42918 | 7.06434 | 35323 ft | 480 kts | 102° |
| 2026-04-30 19:42 | 50.41317 | 7.16403 | 35322 ft | 465 kts | 102° |
| 2026-04-30 19:42 | 50.39719 | 7.26299 | 35326 ft | 471 kts | 102° |
| 2026-04-30 19:43 | 50.38101 | 7.36242 | 35326 ft | 466 kts | 102° |
| 2026-04-30 19:43 | 50.37288 | 7.41241 | 35326 ft | 488 kts | 102° |
| 2026-04-30 19:44 | 50.35657 | 7.51194 | 35332 ft | 459 kts | 102° |
| 2026-04-30 19:44 | 50.34836 | 7.56176 | 35335 ft | 479 kts | 102° |
| 2026-04-30 19:44 | 50.34013 | 7.61165 | 35339 ft | 480 kts | 102° |
| 2026-04-30 19:45 | 50.32361 | 7.71127 | 35331 ft | 470 kts | 102° |
| 2026-04-30 19:45 | 50.30700 | 7.81089 | 35345 ft | 476 kts | 102° |
| 2026-04-30 19:46 | 50.29057 | 7.91040 | 35338 ft | 502 kts | 98° |
| 2026-04-30 19:46 | 50.28571 | 7.96108 | 35345 ft | 475 kts | 95° |
| 2026-04-30 19:46 | 50.28052 | 8.01164 | 35350 ft | 489 kts | 96° |
| 2026-04-30 19:47 | 50.26892 | 8.11376 | 35349 ft | 490 kts | 97° |
| 2026-04-30 19:48 | 50.26759 | 8.12520 | 35347 ft | 468 kts | 97° |
| 2026-04-30 19:49 | 50.20699 | 8.66468 | 35347 ft | 467 kts | 96° |
| 2026-04-30 19:50 | 50.20413 | 8.68965 | 35353 ft | 487 kts | 96° |